sensor_id;sensor_type;location;lat;lon;timestamp;temperature;humidity
13074;DHT22;6603;47.066;15.396;2023-02-28T00:01:05;0.60;99.90
13074;DHT22;6603;47.066;15.396;2023-02-28T00:03:31;0.80;99.90
13074;DHT22;6603;47.066;15.396;2023-02-28T00:06:05;0.50;75.80
13074;DHT22;6603;47.066;15.396;2023-02-28T00:08:32;0.60;27.00
13074;DHT22;6603;47.066;15.396;2023-02-28T00:11:07;0.30;1.00
13074;DHT22;6603;47.066;15.396;2023-02-28T00:13:42;0.30;1.00
13074;DHT22;6603;47.066;15.396;2023-02-28T00:16:11;0.20;1.00
13074;DHT22;6603;47.066;15.396;2023-02-28T00:18:39;0.10;1.00
13074;DHT22;6603;47.066;15.396;2023-02-28T00:21:06;0.10;1.00
13074;DHT22;6603;47.066;15.396;2023-02-28T00:23:33;0.10;1.00
13074;DHT22;6603;47.066;15.396;2023-02-28T00:25:59;0.30;99.90
13074;DHT22;6603;47.066;15.396;2023-02-28T00:28:25;0.40;99.90
13074;DHT22;6603;47.066;15.396;2023-02-28T00:30:51;0.30;1.00
13074;DHT22;6603;47.066;15.396;2023-02-28T00:33:17;0.20;99.90
13074;DHT22;6603;47.066;15.396;2023-02-28T00:35:43;0.10;99.90
13074;DHT22;6603;47.066;15.396;2023-02-28T00:38:13;0.30;1.00
13074;DHT22;6603;47.066;15.396;2023-02-28T00:40:39;0.30;1.00
13074;DHT22;6603;47.066;15.396;2023-02-28T00:43:05;0.10;17.70
13074;DHT22;6603;47.066;15.396;2023-02-28T00:45:31;0.10;99.90
13074;DHT22;6603;47.066;15.396;2023-02-28T00:47:57;0.20;99.90
13074;DHT22;6603;47.066;15.396;2023-02-28T00:50:22;0.30;1.00
13074;DHT22;6603;47.066;15.396;2023-02-28T00:52:48;0.20;1.00
13074;DHT22;6603;47.066;15.396;2023-02-28T00:55:15;0.30;99.90
13074;DHT22;6603;47.066;15.396;2023-02-28T00:57:41;0.30;1.00
13074;DHT22;6603;47.066;15.396;2023-02-28T01:00:08;0.40;1.00
13074;DHT22;6603;47.066;15.396;2023-02-28T01:02:34;0.40;1.00
13074;DHT22;6603;47.066;15.396;2023-02-28T01:05:00;0.60;99.90
13074;DHT22;6603;47.066;15.396;2023-02-28T01:07:26;0.50;28.30
13074;DHT22;6603;47.066;15.396;2023-02-28T01:09:52;0.60;99.90
13074;DHT22;6603;47.066;15.396;2023-02-28T01:12:18;0.40;99.20
13074;DHT22;6603;47.066;15.396;2023-02-28T01:14:44;0.40;21.00
13074;DHT22;6603;47.066;15.396;2023-02-28T01:17:10;0.30;42.90
13074;DHT22;6603;47.066;15.396;2023-02-28T01:19:35;0.30;99.90
13074;DHT22;6603;47.066;15.396;2023-02-28T01:22:05;0.20;99.90
13074;DHT22;6603;47.066;15.396;2023-02-28T01:24:32;0.20;99.90
13074;DHT22;6603;47.066;15.396;2023-02-28T01:26:58;0.60;99.90
13074;DHT22;6603;47.066;15.396;2023-02-28T01:29:24;0.50;99.90
13074;DHT22;6603;47.066;15.396;2023-02-28T01:31:50;0.50;99.90
13074;DHT22;6603;47.066;15.396;2023-02-28T01:34:16;0.50;1.00
13074;DHT22;6603;47.066;15.396;2023-02-28T01:36:41;0.40;99.90
13074;DHT22;6603;47.066;15.396;2023-02-28T01:39:08;0.50;99.90
13074;DHT22;6603;47.066;15.396;2023-02-28T01:41:34;0.50;19.90
13074;DHT22;6603;47.066;15.396;2023-02-28T01:46:30;0.70;1.00
13074;DHT22;6603;47.066;15.396;2023-02-28T01:49:12;0.70;1.00
13074;DHT22;6603;47.066;15.396;2023-02-28T01:51:44;0.60;1.00
13074;DHT22;6603;47.066;15.396;2023-02-28T01:54:17;0.50;99.90
13074;DHT22;6603;47.066;15.396;2023-02-28T01:56:51;0.50;1.00
13074;DHT22;6603;47.066;15.396;2023-02-28T01:59:35;0.50;1.00
13074;DHT22;6603;47.066;15.396;2023-02-28T02:02:04;0.60;99.90
13074;DHT22;6603;47.066;15.396;2023-02-28T02:04:38;0.40;44.20
13074;DHT22;6603;47.066;15.396;2023-02-28T02:07:06;0.50;1.00
13074;DHT22;6603;47.066;15.396;2023-02-28T02:09:33;0.60;99.90
13074;DHT22;6603;47.066;15.396;2023-02-28T02:12:05;0.70;1.00
13074;DHT22;6603;47.066;15.396;2023-02-28T02:17:14;0.60;1.00
13074;DHT22;6603;47.066;15.396;2023-02-28T02:37:02;0.90;1.00
13074;DHT22;6603;47.066;15.396;2023-02-28T02:42:21;0.60;1.00
13074;DHT22;6603;47.066;15.396;2023-02-28T02:44:55;0.60;99.90
13074;DHT22;6603;47.066;15.396;2023-02-28T02:47:26;0.50;1.00
13074;DHT22;6603;47.066;15.396;2023-02-28T02:49:57;0.40;99.90
13074;DHT22;6603;47.066;15.396;2023-02-28T02:52:32;0.50;1.00
13074;DHT22;6603;47.066;15.396;2023-02-28T02:54:59;0.40;1.00
13074;DHT22;6603;47.066;15.396;2023-02-28T03:00:23;0.60;1.00
13074;DHT22;6603;47.066;15.396;2023-02-28T03:32:29;0.90;99.90
13074;DHT22;6603;47.066;15.396;2023-02-28T03:35:18;0.70;1.00
13074;DHT22;6603;47.066;15.396;2023-02-28T03:37:52;0.80;1.00
13074;DHT22;6603;47.066;15.396;2023-02-28T03:40:23;0.80;99.90
13074;DHT22;6603;47.066;15.396;2023-02-28T03:42:55;0.70;1.00
13074;DHT22;6603;47.066;15.396;2023-02-28T03:45:28;0.80;99.90
13074;DHT22;6603;47.066;15.396;2023-02-28T03:50:43;0.60;99.90
13074;DHT22;6603;47.066;15.396;2023-02-28T03:55:51;0.60;1.00
13074;DHT22;6603;47.066;15.396;2023-02-28T03:58:24;0.70;99.90
13074;DHT22;6603;47.066;15.396;2023-02-28T04:01:21;0.80;1.00
13074;DHT22;6603;47.066;15.396;2023-02-28T04:03:45;0.60;1.00
13074;DHT22;6603;47.066;15.396;2023-02-28T04:06:34;0.80;44.70
13074;DHT22;6603;47.066;15.396;2023-02-28T04:09:02;0.50;99.90
13074;DHT22;6603;47.066;15.396;2023-02-28T04:11:39;0.60;1.00
13074;DHT22;6603;47.066;15.396;2023-02-28T04:14:07;0.70;62.80
13074;DHT22;6603;47.066;15.396;2023-02-28T04:16:35;0.80;31.50
13074;DHT22;6603;47.066;15.396;2023-02-28T04:19:06;0.70;43.00
13074;DHT22;6603;47.066;15.396;2023-02-28T04:21:34;0.80;1.00
13074;DHT22;6603;47.066;15.396;2023-02-28T04:24:02;0.60;1.00
13074;DHT22;6603;47.066;15.396;2023-02-28T04:26:33;0.60;1.00
13074;DHT22;6603;47.066;15.396;2023-02-28T04:29:00;0.50;1.00
13074;DHT22;6603;47.066;15.396;2023-02-28T04:31:27;0.40;1.00
13074;DHT22;6603;47.066;15.396;2023-02-28T04:33:52;0.50;1.00
13074;DHT22;6603;47.066;15.396;2023-02-28T04:36:19;0.50;1.00
13074;DHT22;6603;47.066;15.396;2023-02-28T04:38:45;0.60;99.90
13074;DHT22;6603;47.066;15.396;2023-02-28T04:41:12;0.50;1.00
13074;DHT22;6603;47.066;15.396;2023-02-28T04:43:39;0.50;1.00
13074;DHT22;6603;47.066;15.396;2023-02-28T04:46:06;0.50;1.00
13074;DHT22;6603;47.066;15.396;2023-02-28T04:48:34;0.70;1.00
13074;DHT22;6603;47.066;15.396;2023-02-28T04:51:03;0.70;1.00
13074;DHT22;6603;47.066;15.396;2023-02-28T04:53:29;0.60;1.00
13074;DHT22;6603;47.066;15.396;2023-02-28T04:55:57;0.50;1.00
13074;DHT22;6603;47.066;15.396;2023-02-28T04:58:23;0.50;1.00
13074;DHT22;6603;47.066;15.396;2023-02-28T05:00:51;0.50;1.00
13074;DHT22;6603;47.066;15.396;2023-02-28T05:03:17;0.50;90.10
13074;DHT22;6603;47.066;15.396;2023-02-28T05:05:43;0.50;1.00
13074;DHT22;6603;47.066;15.396;2023-02-28T05:08:09;0.60;1.00
13074;DHT22;6603;47.066;15.396;2023-02-28T05:10:36;0.50;1.00
13074;DHT22;6603;47.066;15.396;2023-02-28T05:13:02;0.50;99.90
13074;DHT22;6603;47.066;15.396;2023-02-28T05:15:28;0.50;99.90
13074;DHT22;6603;47.066;15.396;2023-02-28T05:17:54;0.50;1.00
13074;DHT22;6603;47.066;15.396;2023-02-28T05:20:20;0.50;1.00
13074;DHT22;6603;47.066;15.396;2023-02-28T05:22:47;0.50;1.00
13074;DHT22;6603;47.066;15.396;2023-02-28T05:25:20;0.60;99.90
13074;DHT22;6603;47.066;15.396;2023-02-28T05:27:50;0.50;1.00
13074;DHT22;6603;47.066;15.396;2023-02-28T05:30:16;0.60;33.60
13074;DHT22;6603;47.066;15.396;2023-02-28T05:32:43;0.70;1.00
13074;DHT22;6603;47.066;15.396;2023-02-28T05:35:10;0.70;1.00
13074;DHT22;6603;47.066;15.396;2023-02-28T05:37:38;0.60;99.90
13074;DHT22;6603;47.066;15.396;2023-02-28T05:40:06;0.60;99.90
13074;DHT22;6603;47.066;15.396;2023-02-28T05:42:33;0.50;48.20
13074;DHT22;6603;47.066;15.396;2023-02-28T05:44:59;0.50;1.00
13074;DHT22;6603;47.066;15.396;2023-02-28T05:47:25;0.60;1.00
13074;DHT22;6603;47.066;15.396;2023-02-28T05:49:51;0.50;1.00
13074;DHT22;6603;47.066;15.396;2023-02-28T05:52:17;0.60;1.00
13074;DHT22;6603;47.066;15.396;2023-02-28T05:54:43;0.60;99.90
13074;DHT22;6603;47.066;15.396;2023-02-28T05:57:08;0.70;1.00
13074;DHT22;6603;47.066;15.396;2023-02-28T05:59:34;0.60;1.00
13074;DHT22;6603;47.066;15.396;2023-02-28T06:02:10;0.60;1.00
13074;DHT22;6603;47.066;15.396;2023-02-28T06:04:36;0.60;1.00
13074;DHT22;6603;47.066;15.396;2023-02-28T06:07:02;0.70;99.90
13074;DHT22;6603;47.066;15.396;2023-02-28T06:09:29;0.60;99.90
13074;DHT22;6603;47.066;15.396;2023-02-28T06:11:57;0.60;99.90
13074;DHT22;6603;47.066;15.396;2023-02-28T06:14:23;0.50;1.00
13074;DHT22;6603;47.066;15.396;2023-02-28T06:16:48;0.40;99.90
13074;DHT22;6603;47.066;15.396;2023-02-28T06:19:14;0.50;29.00
13074;DHT22;6603;47.066;15.396;2023-02-28T06:21:41;0.50;1.00
13074;DHT22;6603;47.066;15.396;2023-02-28T06:24:07;0.60;99.90
13074;DHT22;6603;47.066;15.396;2023-02-28T06:26:33;0.60;1.00
13074;DHT22;6603;47.066;15.396;2023-02-28T06:28:59;0.80;1.00
13074;DHT22;6603;47.066;15.396;2023-02-28T06:31:26;0.80;1.00
13074;DHT22;6603;47.066;15.396;2023-02-28T06:33:55;0.70;99.90
13074;DHT22;6603;47.066;15.396;2023-02-28T06:36:21;0.80;99.90
13074;DHT22;6603;47.066;15.396;2023-02-28T06:38:47;0.60;4.90
13074;DHT22;6603;47.066;15.396;2023-02-28T06:41:17;0.70;99.90
13074;DHT22;6603;47.066;15.396;2023-02-28T06:43:44;0.70;99.90
13074;DHT22;6603;47.066;15.396;2023-02-28T06:46:12;0.80;99.90
13074;DHT22;6603;47.066;15.396;2023-02-28T06:48:40;0.90;35.10
13074;DHT22;6603;47.066;15.396;2023-02-28T06:51:09;0.80;1.00
13074;DHT22;6603;47.066;15.396;2023-02-28T06:53:36;0.90;1.00
13074;DHT22;6603;47.066;15.396;2023-02-28T06:56:07;0.90;1.00
13074;DHT22;6603;47.066;15.396;2023-02-28T06:58:33;1.00;1.00
13074;DHT22;6603;47.066;15.396;2023-02-28T07:01:00;1.00;1.00
13074;DHT22;6603;47.066;15.396;2023-02-28T07:03:26;0.90;1.00
13074;DHT22;6603;47.066;15.396;2023-02-28T07:05:52;1.00;1.00
13074;DHT22;6603;47.066;15.396;2023-02-28T07:08:18;1.00;1.00
13074;DHT22;6603;47.066;15.396;2023-02-28T07:10:44;1.00;1.00
13074;DHT22;6603;47.066;15.396;2023-02-28T07:13:10;1.10;1.00
13074;DHT22;6603;47.066;15.396;2023-02-28T07:15:37;1.10;1.00
13074;DHT22;6603;47.066;15.396;2023-02-28T07:18:03;1.10;99.90
13074;DHT22;6603;47.066;15.396;2023-02-28T07:20:30;1.00;1.00
13074;DHT22;6603;47.066;15.396;2023-02-28T07:22:56;1.10;1.00
13074;DHT22;6603;47.066;15.396;2023-02-28T07:25:27;1.10;1.00
13074;DHT22;6603;47.066;15.396;2023-02-28T07:27:54;1.20;1.00
13074;DHT22;6603;47.066;15.396;2023-02-28T07:30:20;1.20;1.00
13074;DHT22;6603;47.066;15.396;2023-02-28T07:32:46;1.10;1.00
13074;DHT22;6603;47.066;15.396;2023-02-28T07:35:13;1.20;1.00
13074;DHT22;6603;47.066;15.396;2023-02-28T07:37:41;1.20;1.00
13074;DHT22;6603;47.066;15.396;2023-02-28T07:40:11;1.30;99.90
13074;DHT22;6603;47.066;15.396;2023-02-28T07:42:38;1.40;1.00
13074;DHT22;6603;47.066;15.396;2023-02-28T07:45:05;1.40;1.00
13074;DHT22;6603;47.066;15.396;2023-02-28T07:47:32;1.40;1.00
13074;DHT22;6603;47.066;15.396;2023-02-28T07:49:58;1.40;99.90
13074;DHT22;6603;47.066;15.396;2023-02-28T07:52:24;1.40;99.90
13074;DHT22;6603;47.066;15.396;2023-02-28T07:54:51;1.30;99.90
13074;DHT22;6603;47.066;15.396;2023-02-28T07:57:17;1.30;99.90
13074;DHT22;6603;47.066;15.396;2023-02-28T07:59:43;1.30;1.00
13074;DHT22;6603;47.066;15.396;2023-02-28T08:02:14;1.20;1.00
13074;DHT22;6603;47.066;15.396;2023-02-28T08:04:41;1.40;1.00
13074;DHT22;6603;47.066;15.396;2023-02-28T08:07:07;1.20;99.90
13074;DHT22;6603;47.066;15.396;2023-02-28T08:09:34;1.30;1.00
13074;DHT22;6603;47.066;15.396;2023-02-28T08:12:00;1.50;1.00
13074;DHT22;6603;47.066;15.396;2023-02-28T08:14:26;1.60;99.90
13074;DHT22;6603;47.066;15.396;2023-02-28T08:16:52;1.60;99.90
13074;DHT22;6603;47.066;15.396;2023-02-28T08:19:18;1.70;1.00
13074;DHT22;6603;47.066;15.396;2023-02-28T08:21:44;1.70;18.90
13074;DHT22;6603;47.066;15.396;2023-02-28T08:24:10;1.70;1.00
13074;DHT22;6603;47.066;15.396;2023-02-28T08:26:36;1.80;99.90
13074;DHT22;6603;47.066;15.396;2023-02-28T08:29:02;1.70;99.90
13074;DHT22;6603;47.066;15.396;2023-02-28T08:31:28;1.70;1.00
13074;DHT22;6603;47.066;15.396;2023-02-28T08:33:54;1.80;7.50
13074;DHT22;6603;47.066;15.396;2023-02-28T08:36:23;1.80;1.00
13074;DHT22;6603;47.066;15.396;2023-02-28T08:38:50;1.70;1.00
13074;DHT22;6603;47.066;15.396;2023-02-28T08:41:16;1.80;1.00
13074;DHT22;6603;47.066;15.396;2023-02-28T08:43:42;1.70;99.90
13074;DHT22;6603;47.066;15.396;2023-02-28T08:46:12;1.70;1.00
13074;DHT22;6603;47.066;15.396;2023-02-28T08:48:39;1.80;1.00
13074;DHT22;6603;47.066;15.396;2023-02-28T08:51:11;1.70;1.00
13074;DHT22;6603;47.066;15.396;2023-02-28T08:53:38;1.60;1.00
13074;DHT22;6603;47.066;15.396;2023-02-28T08:56:07;1.80;1.00
13074;DHT22;6603;47.066;15.396;2023-02-28T08:58:34;2.00;99.90
13074;DHT22;6603;47.066;15.396;2023-02-28T09:01:08;2.10;1.00
13074;DHT22;6603;47.066;15.396;2023-02-28T09:03:35;2.30;1.00
13074;DHT22;6603;47.066;15.396;2023-02-28T09:06:01;2.30;1.00
13074;DHT22;6603;47.066;15.396;2023-02-28T09:08:30;2.40;1.00
13074;DHT22;6603;47.066;15.396;2023-02-28T09:10:57;2.30;99.90
13074;DHT22;6603;47.066;15.396;2023-02-28T09:13:24;2.30;99.90
13074;DHT22;6603;47.066;15.396;2023-02-28T09:15:51;2.40;1.00
13074;DHT22;6603;47.066;15.396;2023-02-28T09:18:17;2.50;99.90
13074;DHT22;6603;47.066;15.396;2023-02-28T09:20:43;2.40;99.90
13074;DHT22;6603;47.066;15.396;2023-02-28T09:23:11;2.60;99.90
13074;DHT22;6603;47.066;15.396;2023-02-28T09:25:46;2.50;99.90
13074;DHT22;6603;47.066;15.396;2023-02-28T09:28:13;2.60;99.90
13074;DHT22;6603;47.066;15.396;2023-02-28T09:30:42;2.50;1.00
13074;DHT22;6603;47.066;15.396;2023-02-28T09:33:08;2.60;94.90
13074;DHT22;6603;47.066;15.396;2023-02-28T09:35:34;2.70;65.00
13074;DHT22;6603;47.066;15.396;2023-02-28T09:38:00;2.60;21.40
13074;DHT22;6603;47.066;15.396;2023-02-28T09:40:28;2.70;35.80
13074;DHT22;6603;47.066;15.396;2023-02-28T09:42:57;2.70;99.90
13074;DHT22;6603;47.066;15.396;2023-02-28T09:45:39;2.90;92.40
13074;DHT22;6603;47.066;15.396;2023-02-28T09:48:22;2.70;1.00
13074;DHT22;6603;47.066;15.396;2023-02-28T09:50:57;2.70;1.00
13074;DHT22;6603;47.066;15.396;2023-02-28T09:53:29;3.00;99.90
13074;DHT22;6603;47.066;15.396;2023-02-28T09:56:08;3.10;99.90
13074;DHT22;6603;47.066;15.396;2023-02-28T09:58:47;3.20;1.00
13074;DHT22;6603;47.066;15.396;2023-02-28T10:04:08;3.40;1.00
13074;DHT22;6603;47.066;15.396;2023-02-28T10:06:46;3.70;1.00
13074;DHT22;6603;47.066;15.396;2023-02-28T10:09:25;3.50;1.00
13074;DHT22;6603;47.066;15.396;2023-02-28T10:11:56;3.60;1.00
13074;DHT22;6603;47.066;15.396;2023-02-28T10:14:26;3.80;1.00
13074;DHT22;6603;47.066;15.396;2023-02-28T10:17:15;3.70;1.00
13074;DHT22;6603;47.066;15.396;2023-02-28T10:19:55;3.60;1.00
13074;DHT22;6603;47.066;15.396;2023-02-28T10:23:21;3.50;1.00
13074;DHT22;6603;47.066;15.396;2023-02-28T10:25:40;3.70;1.00
13074;DHT22;6603;47.066;15.396;2023-02-28T10:30:36;3.80;1.00
13074;DHT22;6603;47.066;15.396;2023-02-28T10:33:04;4.00;99.90
13074;DHT22;6603;47.066;15.396;2023-02-28T10:35:30;3.80;1.00
13074;DHT22;6603;47.066;15.396;2023-02-28T10:37:59;3.90;1.00
13074;DHT22;6603;47.066;15.396;2023-02-28T10:40:33;4.10;99.90
13074;DHT22;6603;47.066;15.396;2023-02-28T10:43:02;4.30;99.90
13074;DHT22;6603;47.066;15.396;2023-02-28T10:45:33;4.00;99.90
13074;DHT22;6603;47.066;15.396;2023-02-28T10:48:29;3.90;99.90
13074;DHT22;6603;47.066;15.396;2023-02-28T10:50:55;4.20;1.00
13074;DHT22;6603;47.066;15.396;2023-02-28T10:58:27;4.60;1.00
13074;DHT22;6603;47.066;15.396;2023-02-28T11:00:54;4.50;99.90
13074;DHT22;6603;47.066;15.396;2023-02-28T11:03:43;4.50;99.90
13074;DHT22;6603;47.066;15.396;2023-02-28T11:06:22;4.80;99.90
13074;DHT22;6603;47.066;15.396;2023-02-28T11:08:54;5.00;99.90
13074;DHT22;6603;47.066;15.396;2023-02-28T11:11:23;5.00;99.90
13074;DHT22;6603;47.066;15.396;2023-02-28T11:13:54;4.90;99.90
13074;DHT22;6603;47.066;15.396;2023-02-28T11:16:23;4.90;99.90
13074;DHT22;6603;47.066;15.396;2023-02-28T11:18:57;4.80;99.90
13074;DHT22;6603;47.066;15.396;2023-02-28T11:21:27;4.80;99.90
13074;DHT22;6603;47.066;15.396;2023-02-28T11:26:48;5.20;99.90
13074;DHT22;6603;47.066;15.396;2023-02-28T11:29:28;5.10;99.90
13074;DHT22;6603;47.066;15.396;2023-02-28T11:32:13;4.80;99.90
13074;DHT22;6603;47.066;15.396;2023-02-28T11:34:42;4.90;99.90
13074;DHT22;6603;47.066;15.396;2023-02-28T11:37:16;5.00;99.90
13074;DHT22;6603;47.066;15.396;2023-02-28T11:39:44;5.10;99.90
13074;DHT22;6603;47.066;15.396;2023-02-28T11:53:05;5.50;99.90
13074;DHT22;6603;47.066;15.396;2023-02-28T11:55:38;5.50;99.90
13074;DHT22;6603;47.066;15.396;2023-02-28T11:58:17;5.10;72.50
13074;DHT22;6603;47.066;15.396;2023-02-28T12:06:49;5.00;7.10
13074;DHT22;6603;47.066;15.396;2023-02-28T12:26:44;5.30;94.30
13074;DHT22;6603;47.066;15.396;2023-02-28T12:29:21;5.20;78.00
13074;DHT22;6603;47.066;15.396;2023-02-28T12:31:55;5.40;99.90
13074;DHT22;6603;47.066;15.396;2023-02-28T12:34:33;5.40;99.90
13074;DHT22;6603;47.066;15.396;2023-02-28T12:37:05;5.40;99.90
13074;DHT22;6603;47.066;15.396;2023-02-28T12:39:36;5.60;99.90
13074;DHT22;6603;47.066;15.396;2023-02-28T12:42:29;5.70;90.10
13074;DHT22;6603;47.066;15.396;2023-02-28T12:47:34;5.30;99.90
13074;DHT22;6603;47.066;15.396;2023-02-28T12:50:06;5.50;99.90
13074;DHT22;6603;47.066;15.396;2023-02-28T12:52:53;5.40;99.90
13074;DHT22;6603;47.066;15.396;2023-02-28T12:55:49;5.60;99.90
13074;DHT22;6603;47.066;15.396;2023-02-28T12:58:35;5.60;99.90
13074;DHT22;6603;47.066;15.396;2023-02-28T13:03:56;5.50;99.90
13074;DHT22;6603;47.066;15.396;2023-02-28T13:09:14;5.50;79.50
13074;DHT22;6603;47.066;15.396;2023-02-28T13:11:45;5.50;99.90
13074;DHT22;6603;47.066;15.396;2023-02-28T13:14:44;5.80;99.90
13074;DHT22;6603;47.066;15.396;2023-02-28T13:17:20;5.70;99.90
13074;DHT22;6603;47.066;15.396;2023-02-28T13:20:00;5.70;99.90
13074;DHT22;6603;47.066;15.396;2023-02-28T13:25:02;5.80;98.70
13074;DHT22;6603;47.066;15.396;2023-02-28T13:27:40;5.50;99.90
13074;DHT22;6603;47.066;15.396;2023-02-28T13:38:42;5.70;99.90
13074;DHT22;6603;47.066;15.396;2023-02-28T13:41:41;5.40;99.90
13074;DHT22;6603;47.066;15.396;2023-02-28T13:44:23;5.50;99.90
13074;DHT22;6603;47.066;15.396;2023-02-28T14:00:02;5.20;99.90
13074;DHT22;6603;47.066;15.396;2023-02-28T14:02:38;5.20;99.90
13074;DHT22;6603;47.066;15.396;2023-02-28T14:05:16;5.50;99.90
13074;DHT22;6603;47.066;15.396;2023-02-28T14:07:50;5.90;99.90
13074;DHT22;6603;47.066;15.396;2023-02-28T14:10:31;5.90;99.90
13074;DHT22;6603;47.066;15.396;2023-02-28T14:13:11;6.00;99.90
13074;DHT22;6603;47.066;15.396;2023-02-28T14:18:19;6.60;99.90
13074;DHT22;6603;47.066;15.396;2023-02-28T14:20:48;6.40;16.70
13074;DHT22;6603;47.066;15.396;2023-02-28T14:31:35;5.40;99.90
13074;DHT22;6603;47.066;15.396;2023-02-28T14:36:45;5.60;99.90
13074;DHT22;6603;47.066;15.396;2023-02-28T14:39:17;5.50;99.90
13074;DHT22;6603;47.066;15.396;2023-02-28T14:41:45;5.50;94.10
13074;DHT22;6603;47.066;15.396;2023-02-28T14:44:17;5.40;99.90
13074;DHT22;6603;47.066;15.396;2023-02-28T14:46:45;5.30;99.90
13074;DHT22;6603;47.066;15.396;2023-02-28T14:54:36;5.50;99.90
13074;DHT22;6603;47.066;15.396;2023-02-28T14:57:03;5.40;99.90
13074;DHT22;6603;47.066;15.396;2023-02-28T14:59:35;5.30;99.90
13074;DHT22;6603;47.066;15.396;2023-02-28T15:02:33;5.50;99.90
13074;DHT22;6603;47.066;15.396;2023-02-28T15:05:02;5.50;99.90
13074;DHT22;6603;47.066;15.396;2023-02-28T15:07:35;5.40;99.90
13074;DHT22;6603;47.066;15.396;2023-02-28T15:10:21;5.40;99.90
13074;DHT22;6603;47.066;15.396;2023-02-28T15:15:45;5.30;99.90
13074;DHT22;6603;47.066;15.396;2023-02-28T15:21:08;5.10;99.90
13074;DHT22;6603;47.066;15.396;2023-02-28T15:23:37;5.20;99.90
13074;DHT22;6603;47.066;15.396;2023-02-28T15:26:05;5.30;99.90
13074;DHT22;6603;47.066;15.396;2023-02-28T15:28:31;5.10;99.90
13074;DHT22;6603;47.066;15.396;2023-02-28T15:31:00;5.20;99.90
13074;DHT22;6603;47.066;15.396;2023-02-28T15:33:31;5.10;99.90
13074;DHT22;6603;47.066;15.396;2023-02-28T15:38:36;4.90;99.90
13074;DHT22;6603;47.066;15.396;2023-02-28T15:41:02;4.70;99.90
13074;DHT22;6603;47.066;15.396;2023-02-28T15:43:37;4.80;99.90
13074;DHT22;6603;47.066;15.396;2023-02-28T15:46:12;5.00;99.90
13074;DHT22;6603;47.066;15.396;2023-02-28T15:48:47;4.90;99.90
13074;DHT22;6603;47.066;15.396;2023-02-28T15:51:24;4.80;99.90
13074;DHT22;6603;47.066;15.396;2023-02-28T15:54:18;4.60;99.90
13074;DHT22;6603;47.066;15.396;2023-02-28T15:56:51;4.30;99.90
13074;DHT22;6603;47.066;15.396;2023-02-28T15:59:21;4.40;99.90
13074;DHT22;6603;47.066;15.396;2023-02-28T16:01:47;4.40;99.90
13074;DHT22;6603;47.066;15.396;2023-02-28T16:04:28;4.20;99.90
13074;DHT22;6603;47.066;15.396;2023-02-28T16:07:00;4.10;99.90
13074;DHT22;6603;47.066;15.396;2023-02-28T16:09:26;3.90;99.90
13074;DHT22;6603;47.066;15.396;2023-02-28T16:12:00;3.80;99.90
13074;DHT22;6603;47.066;15.396;2023-02-28T16:14:30;3.80;1.00
13074;DHT22;6603;47.066;15.396;2023-02-28T16:17:05;3.70;99.90
13074;DHT22;6603;47.066;15.396;2023-02-28T16:19:32;3.60;1.00
13074;DHT22;6603;47.066;15.396;2023-02-28T16:21:58;3.50;1.00
13074;DHT22;6603;47.066;15.396;2023-02-28T16:24:24;3.30;1.00
13074;DHT22;6603;47.066;15.396;2023-02-28T16:26:53;3.00;1.00
13074;DHT22;6603;47.066;15.396;2023-02-28T16:29:32;3.00;1.00
13074;DHT22;6603;47.066;15.396;2023-02-28T16:32:00;2.90;1.00
13074;DHT22;6603;47.066;15.396;2023-02-28T16:34:26;2.80;1.00
13074;DHT22;6603;47.066;15.396;2023-02-28T16:36:53;2.80;1.00
13074;DHT22;6603;47.066;15.396;2023-02-28T16:39:19;2.70;67.50
13074;DHT22;6603;47.066;15.396;2023-02-28T16:41:49;2.60;99.90
13074;DHT22;6603;47.066;15.396;2023-02-28T16:44:38;2.50;99.90
13074;DHT22;6603;47.066;15.396;2023-02-28T16:47:04;2.50;1.00
13074;DHT22;6603;47.066;15.396;2023-02-28T16:49:30;2.50;1.00
13074;DHT22;6603;47.066;15.396;2023-02-28T16:51:56;2.50;1.00
13074;DHT22;6603;47.066;15.396;2023-02-28T16:54:22;2.40;1.00
13074;DHT22;6603;47.066;15.396;2023-02-28T16:56:48;2.30;1.00
13074;DHT22;6603;47.066;15.396;2023-02-28T16:59:19;2.30;1.00
13074;DHT22;6603;47.066;15.396;2023-02-28T17:01:46;2.30;99.90
13074;DHT22;6603;47.066;15.396;2023-02-28T17:04:13;2.20;1.00
13074;DHT22;6603;47.066;15.396;2023-02-28T17:06:39;2.10;1.00
13074;DHT22;6603;47.066;15.396;2023-02-28T17:09:05;2.30;99.90
13074;DHT22;6603;47.066;15.396;2023-02-28T17:11:40;2.40;1.00
13074;DHT22;6603;47.066;15.396;2023-02-28T17:14:05;2.50;99.90
13074;DHT22;6603;47.066;15.396;2023-02-28T17:16:33;2.70;1.00
13074;DHT22;6603;47.066;15.396;2023-02-28T17:19:03;2.60;32.60
13074;DHT22;6603;47.066;15.396;2023-02-28T17:21:30;2.60;1.00
13074;DHT22;6603;47.066;15.396;2023-02-28T17:23:57;2.60;99.90
13074;DHT22;6603;47.066;15.396;2023-02-28T17:26:23;2.40;1.00
13074;DHT22;6603;47.066;15.396;2023-02-28T17:28:54;2.30;99.90
13074;DHT22;6603;47.066;15.396;2023-02-28T17:31:25;2.50;99.90
13074;DHT22;6603;47.066;15.396;2023-02-28T17:33:51;2.60;1.00
13074;DHT22;6603;47.066;15.396;2023-02-28T17:36:24;2.40;1.00
13074;DHT22;6603;47.066;15.396;2023-02-28T17:38:54;2.50;1.00
13074;DHT22;6603;47.066;15.396;2023-02-28T17:41:21;2.50;1.00
13074;DHT22;6603;47.066;15.396;2023-02-28T17:43:47;2.60;99.90
13074;DHT22;6603;47.066;15.396;2023-02-28T17:46:18;2.60;1.00
13074;DHT22;6603;47.066;15.396;2023-02-28T17:48:51;2.60;99.90
13074;DHT22;6603;47.066;15.396;2023-02-28T17:51:18;2.60;1.00
13074;DHT22;6603;47.066;15.396;2023-02-28T17:53:45;2.70;61.80
13074;DHT22;6603;47.066;15.396;2023-02-28T17:56:16;2.70;1.00
13074;DHT22;6603;47.066;15.396;2023-02-28T17:58:43;2.70;53.40
13074;DHT22;6603;47.066;15.396;2023-02-28T18:01:09;2.60;1.00
13074;DHT22;6603;47.066;15.396;2023-02-28T18:03:35;2.60;99.90
13074;DHT22;6603;47.066;15.396;2023-02-28T18:06:01;2.50;1.00
13074;DHT22;6603;47.066;15.396;2023-02-28T18:08:27;2.70;1.00
13074;DHT22;6603;47.066;15.396;2023-02-28T18:10:54;2.60;99.90
13074;DHT22;6603;47.066;15.396;2023-02-28T18:13:19;2.70;42.00
13074;DHT22;6603;47.066;15.396;2023-02-28T18:16:11;2.70;1.00
13074;DHT22;6603;47.066;15.396;2023-02-28T18:18:57;2.80;1.00
13074;DHT22;6603;47.066;15.396;2023-02-28T18:21:23;2.80;1.00
13074;DHT22;6603;47.066;15.396;2023-02-28T18:23:48;2.70;99.90
13074;DHT22;6603;47.066;15.396;2023-02-28T18:26:19;2.60;1.00
13074;DHT22;6603;47.066;15.396;2023-02-28T18:28:46;2.60;1.00
13074;DHT22;6603;47.066;15.396;2023-02-28T18:31:14;2.50;99.90
13074;DHT22;6603;47.066;15.396;2023-02-28T18:33:42;2.50;1.00
13074;DHT22;6603;47.066;15.396;2023-02-28T18:36:08;2.50;1.00
13074;DHT22;6603;47.066;15.396;2023-02-28T18:38:33;2.50;1.00
13074;DHT22;6603;47.066;15.396;2023-02-28T18:41:01;2.60;1.00
13074;DHT22;6603;47.066;15.396;2023-02-28T18:43:29;2.70;99.90
13074;DHT22;6603;47.066;15.396;2023-02-28T18:45:55;2.60;99.90
13074;DHT22;6603;47.066;15.396;2023-02-28T18:48:21;2.60;99.90
13074;DHT22;6603;47.066;15.396;2023-02-28T18:50:51;2.70;1.00
13074;DHT22;6603;47.066;15.396;2023-02-28T18:53:17;2.70;99.90
13074;DHT22;6603;47.066;15.396;2023-02-28T18:55:43;2.70;99.90
13074;DHT22;6603;47.066;15.396;2023-02-28T18:58:10;2.70;99.90
13074;DHT22;6603;47.066;15.396;2023-02-28T19:00:36;2.70;1.00